Time;durP1;ratioP1;P1;durP2;ratioP2;P2;SDS_P1;SDS_P2;PMS_P1;PMS_P2;Temp;Humidity;BMP_temperature;BMP_pressure;BME280_temperature;BME280_humidity;BME280_pressure;Samples;Min_cycle;Max_cycle;Signal;HPM_P1;HPM_P2
2022/07/07 00:02:17;;;;;;;15.75;1.90;;;16.60;96.40;;;;;;6143577;29;20299;-66
2022/07/07 00:05:24;;;;;;;10.80;1.65;;;16.60;96.20;;;;;;6158047;29;20267;-66
2022/07/07 00:08:29;;;;;;;9.05;1.20;;;16.50;96.30;;;;;;6167240;29;20274;-66
2022/07/07 00:11:36;;;;;;;12.75;1.60;;;16.50;96.30;;;;;;6166906;29;20306;-68
2022/07/07 00:14:41;;;;;;;4.30;1.40;;;16.50;96.10;;;;;;6166961;29;20270;-66
2022/07/07 00:17:46;;;;;;;2.90;0.80;;;16.40;96.60;;;;;;6166969;29;20275;-66
2022/07/07 00:20:51;;;;;;;1.95;1.00;;;16.40;96.20;;;;;;6166365;29;20372;-66
2022/07/07 00:23:57;;;;;;;8.02;1.10;;;16.30;96.20;;;;;;6166738;29;20274;-66
2022/07/07 00:27:04;;;;;;;5.68;1.20;;;16.30;96.40;;;;;;6166555;29;20274;-66
2022/07/07 00:30:12;;;;;;;23.17;2.28;;;16.30;96.20;;;;;;6165200;29;20577;-66
2022/07/07 00:33:17;;;;;;;8.18;1.70;;;16.30;96.60;;;;;;6166903;29;20278;-66
2022/07/07 00:36:22;;;;;;;9.43;1.60;;;16.20;97.30;;;;;;6166470;29;20449;-66
2022/07/07 00:39:28;;;;;;;11.52;1.80;;;16.30;97.00;;;;;;6166805;29;20450;-66
2022/07/07 00:42:35;;;;;;;6.22;1.60;;;16.20;96.70;;;;;;6166757;28;20299;-66
2022/07/07 00:45:40;;;;;;;8.65;1.80;;;16.20;97.20;;;;;;6166214;29;20456;-66
2022/07/07 00:48:46;;;;;;;4.43;1.60;;;16.30;97.30;;;;;;6166304;28;20278;-66
2022/07/07 00:51:52;;;;;;;4.78;1.67;;;16.20;97.20;;;;;;6166585;28;20274;-66
2022/07/07 00:54:59;;;;;;;10.63;1.80;;;16.20;97.20;;;;;;6166192;28;20305;-66
2022/07/07 00:58:07;;;;;;;7.53;1.30;;;16.20;97.20;;;;;;6164630;29;20287;-66
2022/07/07 01:01:13;;;;;;;9.70;1.50;;;16.20;97.30;;;;;;6166180;28;20310;-66
2022/07/07 01:04:19;;;;;;;18.92;1.67;;;16.20;97.00;;;;;;6165732;28;20266;-66
2022/07/07 01:07:24;;;;;;;4.22;1.25;;;16.10;97.40;;;;;;6164990;28;20278;-66
2022/07/07 01:10:29;;;;;;;9.73;1.55;;;16.20;97.30;;;;;;6174205;28;20298;-66
2022/07/07 01:13:36;;;;;;;14.55;1.63;;;16.10;97.80;;;;;;6188692;28;20277;-66
2022/07/07 01:16:42;;;;;;;4.57;1.40;;;16.10;97.80;;;;;;6188841;28;20270;-66
2022/07/07 01:19:48;;;;;;;9.48;2.03;;;16.10;98.10;;;;;;6188597;28;20451;-66
2022/07/07 01:22:56;;;;;;;19.52;1.92;;;16.10;98.40;;;;;;6189063;28;20289;-66
2022/07/07 01:26:01;;;;;;;9.02;1.65;;;16.10;98.10;;;;;;6189592;28;20278;-66
2022/07/07 01:29:06;;;;;;;14.80;1.50;;;16.10;98.60;;;;;;6189142;28;20440;-66
2022/07/07 01:32:12;;;;;;;5.47;1.63;;;16.10;98.40;;;;;;6189228;28;20281;-66
2022/07/07 01:35:17;;;;;;;5.95;1.20;;;16.00;99.10;;;;;;6189205;28;20274;-66
2022/07/07 01:38:24;;;;;;;2.00;1.20;;;16.00;99.90;;;;;;6189261;28;20273;-66
2022/07/07 01:41:29;;;;;;;5.57;1.30;;;16.00;99.30;;;;;;6188727;28;20274;-66
2022/07/07 01:44:37;;;;;;;4.38;1.17;;;16.00;98.30;;;;;;6188322;28;20277;-66
2022/07/07 01:47:42;;;;;;;1.63;0.98;;;16.00;98.00;;;;;;6189040;28;20533;-66
2022/07/07 01:50:48;;;;;;;3.42;1.38;;;16.00;97.90;;;;;;6188406;28;20273;-66
2022/07/07 01:53:54;;;;;;;1.17;1.02;;;16.10;97.60;;;;;;6189074;28;20274;-66
2022/07/07 01:57:00;;;;;;;5.70;1.10;;;16.00;98.40;;;;;;6188875;28;20294;-66
2022/07/07 02:00:08;;;;;;;2.50;1.35;;;15.90;98.20;;;;;;6188878;28;20274;-66
2022/07/07 02:03:17;;;;;;;2.38;0.90;;;15.90;99.30;;;;;;6188610;28;20606;-66
2022/07/07 02:06:22;;;;;;;0.82;0.80;;;15.80;98.30;;;;;;6165857;28;20271;-67
2022/07/07 02:09:29;;;;;;;3.20;1.25;;;15.80;98.90;;;;;;6164659;28;20282;-66
2022/07/07 02:12:34;;;;;;;4.57;1.05;;;15.80;98.30;;;;;;6164817;28;20278;-66
2022/07/07 02:15:39;;;;;;;1.48;1.17;;;15.80;98.20;;;;;;6164136;29;20278;-66
2022/07/07 02:18:46;;;;;;;4.70;1.20;;;15.80;98.20;;;;;;6164311;29;20464;-66
2022/07/07 02:21:51;;;;;;;1.23;1.13;;;15.80;98.50;;;;;;6164135;29;20274;-66
2022/07/07 02:24:58;;;;;;;1.38;1.10;;;15.80;98.00;;;;;;6164519;28;20279;-66
2022/07/07 02:28:03;;;;;;;0.85;0.80;;;15.80;98.40;;;;;;6164274;28;20562;-66
2022/07/07 02:31:11;;;;;;;0.80;0.80;;;15.80;98.70;;;;;;6164131;28;20463;-66
2022/07/07 02:34:16;;;;;;;1.00;0.90;;;15.80;99.10;;;;;;6164065;29;20365;-66
2022/07/07 02:37:21;;;;;;;1.75;0.95;;;15.90;98.70;;;;;;6164171;28;20287;-66
2022/07/07 02:40:29;;;;;;;1.75;0.90;;;15.90;98.50;;;;;;6163957;29;20274;-66
2022/07/07 02:43:35;;;;;;;3.25;1.30;;;15.80;98.40;;;;;;6164211;29;20298;-66
2022/07/07 02:46:40;;;;;;;3.92;1.08;;;15.70;99.00;;;;;;6164341;29;20270;-66
2022/07/07 02:49:45;;;;;;;1.67;1.13;;;15.80;98.70;;;;;;6163930;29;20565;-66
2022/07/07 02:52:50;;;;;;;3.20;1.35;;;15.90;98.50;;;;;;6164251;29;20282;-66
2022/07/07 02:55:58;;;;;;;1.30;1.20;;;15.80;98.50;;;;;;6163035;28;20573;-66
2022/07/07 02:59:03;;;;;;;3.00;1.77;;;15.80;99.20;;;;;;6163823;29;20274;-66
2022/07/07 03:02:08;;;;;;;9.80;1.02;;;15.90;99.60;;;;;;6163748;29;20274;-66
2022/07/07 03:05:13;;;;;;;1.20;1.13;;;15.90;98.80;;;;;;6162392;29;20298;-66
2022/07/07 03:08:19;;;;;;;5.05;1.10;;;16.00;98.90;;;;;;6163877;28;20274;-66
2022/07/07 03:11:26;;;;;;;3.03;1.10;;;15.90;98.90;;;;;;6180308;28;20298;-66
2022/07/07 03:14:31;;;;;;;3.17;1.17;;;16.00;98.90;;;;;;6187457;28;20294;-66
2022/07/07 03:17:36;;;;;;;7.47;1.33;;;16.00;99.10;;;;;;6187959;28;20274;-66
2022/07/07 03:20:42;;;;;;;3.03;1.08;;;16.00;98.70;;;;;;6187656;28;20274;-66
2022/07/07 03:23:47;;;;;;;2.22;0.93;;;16.10;98.80;;;;;;6187715;28;20297;-66
2022/07/07 03:26:54;;;;;;;5.95;2.03;;;16.10;98.80;;;;;;6187844;28;20274;-66
2022/07/07 03:29:59;;;;;;;2.78;0.80;;;16.10;98.80;;;;;;6187852;28;20274;-66
2022/07/07 03:33:05;;;;;;;2.47;1.00;;;16.00;98.70;;;;;;6187744;28;20279;-66
2022/07/07 03:36:12;;;;;;;3.35;0.90;;;16.10;99.00;;;;;;6187286;28;20274;-66
2022/07/07 03:39:17;;;;;;;4.82;1.10;;;16.20;99.10;;;;;;6187750;28;20557;-66
2022/07/07 03:42:24;;;;;;;2.17;0.90;;;16.20;99.20;;;;;;6189889;28;20294;-66
2022/07/07 03:45:29;;;;;;;3.55;1.45;;;16.20;99.30;;;;;;6191401;28;20293;-66
2022/07/07 03:48:34;;;;;;;3.80;1.30;;;16.20;99.60;;;;;;6191402;28;20274;-66
2022/07/07 03:51:40;;;;;;;2.88;1.15;;;16.10;99.80;;;;;;6191754;28;20274;-66
2022/07/07 03:54:45;;;;;;;3.97;1.08;;;16.10;99.80;;;;;;6191607;28;20281;-66
2022/07/07 03:57:52;;;;;;;1.92;1.20;;;16.10;99.90;;;;;;6191508;28;20274;-67
2022/07/07 04:00:57;;;;;;;2.38;1.42;;;16.10;99.70;;;;;;6191062;28;20278;-67
2022/07/07 04:04:04;;;;;;;2.50;1.00;;;16.20;99.90;;;;;;6187092;28;20294;-67
2022/07/07 04:07:12;;;;;;;2.92;1.05;;;16.20;99.90;;;;;;6167088;29;20278;-66
2022/07/07 04:10:17;;;;;;;2.70;1.20;;;16.10;99.90;;;;;;6167492;28;20303;-66
2022/07/07 04:13:24;;;;;;;2.15;1.25;;;16.20;99.90;;;;;;6167012;29;20279;-66
2022/07/07 04:16:31;;;;;;;1.27;1.20;;;16.20;99.90;;;;;;6167179;29;20274;-66
2022/07/07 04:19:36;;;;;;;3.25;1.05;;;16.20;99.90;;;;;;6166734;29;20274;-67
2022/07/07 04:22:42;;;;;;;1.00;1.00;;;16.20;99.90;;;;;;6166965;29;20275;-67
2022/07/07 04:25:48;;;;;;;3.08;0.98;;;16.20;99.90;;;;;;6166980;29;20552;-67
2022/07/07 04:28:55;;;;;;;3.92;1.30;;;16.10;99.90;;;;;;6166976;29;20578;-66
2022/07/07 04:32:00;;;;;;;4.95;1.27;;;16.20;99.90;;;;;;6166314;29;20469;-67
2022/07/07 04:35:08;;;;;;;1.52;1.02;;;16.20;99.90;;;;;;6166879;29;20278;-68
2022/07/07 04:38:14;;;;;;;2.22;1.00;;;16.20;99.90;;;;;;6166325;29;20274;-67
2022/07/07 04:41:19;;;;;;;2.08;1.20;;;16.20;99.90;;;;;;6166517;29;20294;-67
2022/07/07 04:44:26;;;;;;;2.33;1.25;;;16.20;99.90;;;;;;6166041;29;20298;-66
2022/07/07 04:47:31;;;;;;;1.40;0.98;;;16.10;99.90;;;;;;6166316;28;20274;-66
2022/07/07 04:50:36;;;;;;;3.28;1.52;;;16.10;99.90;;;;;;6166489;29;20279;-67
2022/07/07 04:53:41;;;;;;;2.83;1.20;;;16.10;99.90;;;;;;6165301;28;20279;-66
2022/07/07 04:56:47;;;;;;;5.53;1.83;;;16.00;99.90;;;;;;6166266;29;20278;-66
2022/07/07 04:59:53;;;;;;;4.10;1.30;;;16.00;99.90;;;;;;6165912;29;20326;-66
2022/07/07 05:02:58;;;;;;;3.45;0.95;;;16.10;99.90;;;;;;6165728;29;20274;-66
2022/07/07 05:06:04;;;;;;;2.42;1.00;;;16.10;99.90;;;;;;6176487;28;20286;-66
2022/07/07 05:09:10;;;;;;;2.25;1.40;;;16.10;99.90;;;;;;6166096;29;20275;-66
2022/07/07 05:12:15;;;;;;;2.58;1.17;;;16.00;99.90;;;;;;6188902;28;20334;-65
2022/07/07 05:15:22;;;;;;;1.67;1.20;;;16.00;99.90;;;;;;6188906;28;20448;-66
2022/07/07 05:18:29;;;;;;;3.58;0.93;;;16.00;99.90;;;;;;6189119;28;20278;-66
2022/07/07 05:21:35;;;;;;;4.45;1.30;;;16.00;99.90;;;;;;6189628;28;20270;-66
2022/07/07 05:24:40;;;;;;;2.78;1.30;;;16.00;99.90;;;;;;6189469;28;20479;-66
2022/07/07 05:27:45;;;;;;;1.65;1.00;;;15.90;99.90;;;;;;6189495;28;20584;-66
2022/07/07 05:30:56;;;;;;;4.88;1.08;;;15.90;99.90;;;;;;6188769;28;20273;-67
2022/07/07 05:34:02;;;;;;;3.20;1.20;;;16.00;99.90;;;;;;6189309;28;20273;-66
2022/07/07 05:37:08;;;;;;;3.25;1.30;;;16.00;99.90;;;;;;6188972;28;20569;-66
2022/07/07 05:40:14;;;;;;;2.33;1.10;;;15.90;99.90;;;;;;6188472;28;20277;-66
2022/07/07 05:43:19;;;;;;;2.40;1.20;;;15.90;99.90;;;;;;6188820;28;20273;-66
2022/07/07 05:46:26;;;;;;;6.22;1.48;;;15.90;99.90;;;;;;6188514;28;20293;-67
2022/07/07 05:49:31;;;;;;;2.30;1.50;;;16.00;99.90;;;;;;6188601;28;20278;-67
2022/07/07 05:52:36;;;;;;;1.67;1.48;;;16.00;99.90;;;;;;6188259;28;20435;-67
2022/07/07 05:55:41;;;;;;;4.25;1.30;;;16.10;99.90;;;;;;6188744;28;20277;-67
2022/07/07 05:58:46;;;;;;;3.03;1.10;;;16.00;99.90;;;;;;6188832;28;20273;-67
2022/07/07 06:01:53;;;;;;;2.65;1.10;;;16.00;99.90;;;;;;6188655;28;20278;-66
2022/07/07 06:04:58;;;;;;;2.95;1.55;;;16.00;99.90;;;;;;6176756;28;20450;-67
2022/07/07 06:08:04;;;;;;;3.55;1.75;;;16.00;99.90;;;;;;6164726;29;20295;-67
2022/07/07 06:11:11;;;;;;;2.60;1.38;;;15.90;99.90;;;;;;6164384;29;20306;-67
2022/07/07 06:14:16;;;;;;;3.90;1.27;;;16.00;99.90;;;;;;6164635;29;20463;-67
2022/07/07 06:17:23;;;;;;;3.72;1.30;;;16.10;99.90;;;;;;6164737;28;20283;-66
2022/07/07 06:20:49;;;;;;;1.58;1.40;;;16.10;99.90;;;;;;6164227;29;20270;-67
2022/07/07 06:23:55;;;;;;;1.77;1.65;;;16.10;99.90;;;;;;6164379;29;20275;-67
2022/07/07 06:27:00;;;;;;;2.58;1.35;;;16.20;99.90;;;;;;6164090;29;20294;-67
2022/07/07 06:30:07;;;;;;;3.45;1.30;;;16.20;99.90;;;;;;6164526;28;20279;-67
2022/07/07 06:33:15;;;;;;;2.03;1.15;;;16.20;99.90;;;;;;6164649;28;20279;-67
2022/07/07 06:36:20;;;;;;;3.78;1.50;;;16.30;99.90;;;;;;6163945;29;20282;-67
2022/07/07 06:39:26;;;;;;;1.58;1.48;;;16.30;99.90;;;;;;6164409;28;20273;-67
2022/07/07 06:42:31;;;;;;;1.42;1.30;;;16.30;99.90;;;;;;6164633;28;20274;-67
2022/07/07 06:45:41;;;;;;;1.35;1.23;;;16.30;99.90;;;;;;6163212;28;20311;-67
2022/07/07 06:48:48;;;;;;;2.60;1.25;;;16.40;99.90;;;;;;6164291;29;20278;-68
2022/07/07 06:51:53;;;;;;;1.63;1.52;;;16.40;99.90;;;;;;6164120;28;20556;-68
2022/07/07 06:54:58;;;;;;;2.28;1.20;;;16.50;99.90;;;;;;6163691;29;20562;-67
2022/07/07 06:58:04;;;;;;;2.65;1.27;;;16.50;99.90;;;;;;6164199;29;20458;-67
2022/07/07 07:01:11;;;;;;;2.30;1.17;;;16.50;99.90;;;;;;6164135;29;20275;-67
2022/07/07 07:04:18;;;;;;;2.50;1.27;;;16.60;99.90;;;;;;6163863;29;20266;-66
2022/07/07 07:07:24;;;;;;;6.68;1.50;;;16.70;99.90;;;;;;6163720;28;20298;-67
2022/07/07 07:10:29;;;;;;;2.97;1.50;;;16.80;99.90;;;;;;6172779;28;20584;-67
2022/07/07 07:13:34;;;;;;;1.52;1.52;;;16.80;99.90;;;;;;6187500;28;20464;-67
2022/07/07 07:16:39;;;;;;;2.83;1.40;;;16.70;99.90;;;;;;6189344;28;20569;-67
2022/07/07 07:19:47;;;;;;;4.35;1.40;;;16.80;99.90;;;;;;6192518;28;20209;-67
2022/07/07 07:22:52;;;;;;;1.85;1.27;;;16.90;99.90;;;;;;6192265;28;20278;-67
2022/07/07 07:25:58;;;;;;;4.15;1.15;;;16.80;99.90;;;;;;6191632;28;20456;-67
2022/07/07 07:29:06;;;;;;;4.40;1.33;;;16.90;99.90;;;;;;6192357;28;20273;-67
2022/07/07 07:32:11;;;;;;;1.67;1.48;;;17.00;99.90;;;;;;6191938;28;20278;-67
2022/07/07 07:35:18;;;;;;;3.45;1.55;;;17.00;99.90;;;;;;6192057;28;20298;-67
2022/07/07 07:38:24;;;;;;;2.55;1.50;;;17.10;99.90;;;;;;6191604;28;20282;-67
2022/07/07 07:41:30;;;;;;;4.70;1.50;;;17.10;99.90;;;;;;6191631;28;20274;-67
2022/07/07 07:48:01;;;;;;;3.80;1.30;;;17.20;99.90;;;;;;6191440;28;20294;-67
2022/07/07 07:51:09;;;;;;;2.50;1.35;;;17.00;99.90;;;;;;6191307;28;20278;-66
2022/07/07 07:54:14;;;;;;;5.32;1.42;;;16.90;99.90;;;;;;6191211;28;20273;-67
2022/07/07 07:57:20;;;;;;;2.30;1.40;;;17.00;99.90;;;;;;6191414;28;20277;-67
2022/07/07 08:00:25;;;;;;;1.60;1.40;;;16.90;99.90;;;;;;6191548;28;20354;-67
2022/07/07 08:03:31;;;;;;;1.65;1.30;;;17.00;99.90;;;;;;6174315;28;20293;-67
2022/07/07 08:06:38;;;;;;;1.50;1.40;;;17.00;99.90;;;;;;6144112;29;20275;-67
2022/07/07 08:09:44;;;;;;;1.40;1.30;;;16.90;99.90;;;;;;6143349;29;20598;-67
2022/07/07 08:12:49;;;;;;;2.65;1.70;;;17.00;99.90;;;;;;6143602;29;20283;-67
2022/07/07 08:15:54;;;;;;;2.35;1.70;;;16.90;99.90;;;;;;6143528;29;20276;-67
2022/07/07 08:18:59;;;;;;;1.48;1.38;;;16.90;99.90;;;;;;6143076;29;20275;-67
2022/07/07 08:22:07;;;;;;;2.33;1.30;;;16.90;99.90;;;;;;6142760;29;20274;-67
2022/07/07 08:25:12;;;;;;;1.42;1.33;;;17.00;99.90;;;;;;6143169;29;20279;-67
2022/07/07 08:28:17;;;;;;;2.45;1.35;;;17.00;99.90;;;;;;6142851;29;20445;-67
2022/07/07 08:31:22;;;;;;;1.30;1.20;;;17.00;99.90;;;;;;6143187;29;20280;-67
2022/07/07 08:34:28;;;;;;;2.33;1.10;;;17.00;99.90;;;;;;6143258;29;20280;-67
2022/07/07 08:37:34;;;;;;;1.80;1.60;;;17.10;99.90;;;;;;6142999;29;20279;-67
2022/07/07 08:40:39;;;;;;;2.03;1.33;;;17.10;99.90;;;;;;6143083;29;20275;-67
2022/07/07 08:43:45;;;;;;;1.90;1.58;;;17.10;99.90;;;;;;6142642;29;20275;-67
2022/07/07 08:46:50;;;;;;;1.77;1.23;;;17.00;99.90;;;;;;6142475;29;20275;-67
2022/07/07 08:49:55;;;;;;;1.23;1.23;;;17.00;99.90;;;;;;6142668;29;20481;-68
2022/07/07 08:53:02;;;;;;;1.35;1.13;;;16.90;99.90;;;;;;6142790;29;20283;-67
2022/07/07 08:56:09;;;;;;;2.70;1.20;;;16.80;99.90;;;;;;6142257;29;20275;-67
2022/07/07 08:59:15;;;;;;;2.38;1.23;;;16.80;99.90;;;;;;6142130;29;20308;-67
2022/07/07 09:02:20;;;;;;;2.90;2.00;;;16.90;99.90;;;;;;6142286;29;20280;-67
2022/07/07 09:05:26;;;;;;;1.60;1.30;;;16.80;99.90;;;;;;6157123;29;20441;-67
2022/07/07 09:08:34;;;;;;;1.60;1.50;;;16.90;99.90;;;;;;6165513;28;20302;-67
2022/07/07 09:11:39;;;;;;;5.65;2.35;;;16.80;99.90;;;;;;6184077;28;20306;-67
2022/07/07 09:14:46;;;;;;;1.98;1.67;;;16.90;99.90;;;;;;6189274;28;20418;-67
2022/07/07 09:17:52;;;;;;;2.30;1.50;;;16.70;99.90;;;;;;6189727;28;20277;-67
2022/07/07 09:20:58;;;;;;;1.40;1.30;;;16.80;99.90;;;;;;6189805;28;20273;-67
2022/07/07 09:24:06;;;;;;;1.65;1.55;;;16.80;99.90;;;;;;6189693;28;20278;-67
2022/07/07 09:27:12;;;;;;;1.48;1.42;;;16.70;99.90;;;;;;6189108;28;20278;-67
2022/07/07 09:30:34;;;;;;;1.45;1.15;;;16.70;99.90;;;;;;6189374;28;20313;-67
2022/07/07 09:33:40;;;;;;;1.75;1.63;;;16.40;99.90;;;;;;6189362;28;20274;-67
2022/07/07 09:40:20;;;;;;;2.40;2.30;;;16.50;99.90;;;;;;6188059;28;20586;-67
2022/07/07 09:43:25;;;;;;;1.42;1.42;;;16.60;99.90;;;;;;6188799;28;20274;-67
2022/07/07 09:46:33;;;;;;;1.60;1.50;;;16.50;99.90;;;;;;6189065;28;20456;-67
2022/07/07 09:49:43;;;;;;;2.25;2.03;;;16.50;99.90;;;;;;6171421;28;20294;-67
2022/07/07 09:52:49;;;;;;;1.60;1.60;;;16.60;99.90;;;;;;6188399;28;20279;-67
2022/07/07 09:56:02;;;;;;;2.30;2.20;;;16.70;99.90;;;;;;6188323;28;20274;-67
2022/07/07 09:59:12;;;;;;;2.50;1.60;;;16.70;99.90;;;;;;6188357;28;20278;-67
2022/07/07 10:02:22;;;;;;;1.02;1.02;;;16.70;99.90;;;;;;6188647;28;20557;-67
2022/07/07 10:05:29;;;;;;;1.42;1.40;;;16.60;99.90;;;;;;6173342;28;20454;-67
2022/07/07 10:08:35;;;;;;;2.72;2.40;;;16.70;99.90;;;;;;6164854;29;20314;-67
2022/07/07 10:11:44;;;;;;;3.30;2.28;;;16.60;99.90;;;;;;6164365;28;20302;-67
2022/07/07 10:14:52;;;;;;;4.47;4.18;;;16.60;99.90;;;;;;6164076;29;20283;-67
2022/07/07 10:17:57;;;;;;;2.50;2.10;;;16.60;99.90;;;;;;6164219;29;20279;-67
2022/07/07 10:21:03;;;;;;;1.83;1.77;;;16.60;99.90;;;;;;6164376;29;20273;-66
2022/07/07 10:24:11;;;;;;;3.95;1.75;;;16.60;99.90;;;;;;6164164;29;20290;-67
2022/07/07 10:27:23;;;;;;;2.00;1.90;;;16.60;99.90;;;;;;6164304;29;20274;-67
2022/07/07 10:30:33;;;;;;;1.73;1.63;;;16.60;99.90;;;;;;6164468;29;20314;-67
2022/07/07 10:33:38;;;;;;;2.25;2.05;;;16.60;99.90;;;;;;6164457;29;20656;-67
2022/07/07 10:37:04;;;;;;;2.40;2.05;;;16.70;99.90;;;;;;6164341;28;20274;-66
2022/07/07 10:40:14;;;;;;;1.48;1.48;;;16.60;99.90;;;;;;6164482;29;20278;-68
2022/07/07 10:43:26;;;;;;;1.23;1.13;;;16.60;99.90;;;;;;6164522;29;20275;-67
2022/07/07 10:46:32;;;;;;;0.93;0.93;;;16.20;99.90;;;;;;6164529;28;20275;-67
2022/07/07 10:49:40;;;;;;;1.10;1.10;;;15.90;99.90;;;;;;6164331;29;20299;-67
2022/07/07 10:52:54;;;;;;;0.80;0.80;;;15.80;99.90;;;;;;6168689;29;20279;-67
2022/07/07 10:56:19;;;;;;;1.40;1.35;;;15.80;99.90;;;;;;6169121;28;20434;-67
2022/07/07 10:59:26;;;;;;;1.27;1.27;;;15.80;99.90;;;;;;6168875;29;20456;-67
2022/07/07 11:02:33;;;;;;;0.90;0.90;;;15.80;99.90;;;;;;6168885;29;20452;-67
2022/07/07 11:05:38;;;;;;;0.98;0.98;;;15.80;99.90;;;;;;6169171;28;20266;-67
2022/07/07 11:08:43;;;;;;;1.10;1.10;;;15.90;99.90;;;;;;6168449;28;20274;-67
2022/07/07 11:11:48;;;;;;;1.08;1.08;;;16.00;99.90;;;;;;6188649;28;20305;-67
2022/07/07 11:15:37;;;;;;;1.00;1.00;;;15.90;99.90;;;;;;6192281;28;20273;-67
2022/07/07 11:18:45;;;;;;;0.73;0.73;;;15.80;99.90;;;;;;6192054;28;20553;-67
2022/07/07 11:21:50;;;;;;;1.08;0.80;;;15.90;99.90;;;;;;6192837;28;20277;-67
2022/07/07 11:24:56;;;;;;;0.75;0.75;;;16.00;99.90;;;;;;6192195;28;20273;-67
2022/07/07 11:28:02;;;;;;;1.00;1.00;;;15.90;99.90;;;;;;6192432;28;20269;-67
2022/07/07 11:31:10;;;;;;;0.90;0.90;;;15.90;99.90;;;;;;6192231;28;20293;-67
2022/07/07 11:34:18;;;;;;;0.75;0.75;;;16.00;99.90;;;;;;6191861;28;20298;-67
2022/07/07 11:37:26;;;;;;;0.90;0.90;;;16.00;99.90;;;;;;6192343;28;20279;-67
2022/07/07 11:40:31;;;;;;;0.88;0.88;;;16.00;99.90;;;;;;6191696;28;20278;-67
2022/07/07 11:43:37;;;;;;;1.73;1.30;;;16.10;99.90;;;;;;6191742;28;20460;-67
2022/07/07 11:46:47;;;;;;;0.90;0.90;;;16.00;99.90;;;;;;6191917;28;20269;-67
2022/07/07 11:49:54;;;;;;;0.95;0.95;;;16.00;99.90;;;;;;6192002;28;20479;-67
2022/07/07 11:53:02;;;;;;;1.23;1.20;;;15.90;99.90;;;;;;6191437;28;20273;-67
2022/07/07 11:56:08;;;;;;;1.63;1.55;;;15.90;99.90;;;;;;6191730;28;20278;-67
2022/07/07 11:59:14;;;;;;;1.25;1.25;;;16.00;99.90;;;;;;6191638;28;20608;-67
2022/07/07 12:02:20;;;;;;;2.10;1.17;;;15.90;99.90;;;;;;6190846;28;20572;-67
2022/07/07 12:05:27;;;;;;;120.35;9.13;;;16.00;99.90;;;;;;6176699;28;20448;-67
2022/07/07 12:08:36;;;;;;;1.00;1.00;;;15.90;99.90;;;;;;6167565;29;20275;-67
2022/07/07 12:11:42;;;;;;;1.02;1.02;;;15.90;99.90;;;;;;6167006;28;20319;-67
2022/07/07 12:14:48;;;;;;;1.70;0.90;;;16.10;99.90;;;;;;6167347;29;20275;-67
2022/07/07 12:17:55;;;;;;;1.60;1.00;;;16.00;99.90;;;;;;6166719;29;20275;-67
2022/07/07 12:21:03;;;;;;;3.35;1.10;;;16.00;99.90;;;;;;6166923;29;20282;-67
2022/07/07 12:24:14;;;;;;;1.00;0.90;;;16.00;99.90;;;;;;6167102;29;20271;-67
2022/07/07 12:27:20;;;;;;;2.15;0.82;;;16.00;99.90;;;;;;6166660;29;20279;-67
2022/07/07 12:30:27;;;;;;;1.15;1.10;;;16.00;99.90;;;;;;6166496;29;20291;-67
2022/07/07 12:33:35;;;;;;;1.00;1.00;;;16.00;99.90;;;;;;6166832;29;20279;-67
2022/07/07 12:36:42;;;;;;;1.52;1.45;;;16.00;99.90;;;;;;6166750;29;20279;-68
2022/07/07 12:40:04;;;;;;;1.50;1.50;;;15.90;99.90;;;;;;6166726;29;20290;-67
2022/07/07 12:43:12;;;;;;;3.25;1.20;;;15.90;99.90;;;;;;6166894;28;20270;-67
2022/07/07 12:46:18;;;;;;;0.95;0.95;;;15.70;99.90;;;;;;6166256;29;20460;-67
2022/07/07 12:49:25;;;;;;;1.10;1.00;;;15.70;99.90;;;;;;6149494;29;20283;-67
2022/07/07 12:52:30;;;;;;;1.52;1.30;;;15.70;99.90;;;;;;6166550;28;20294;-67
2022/07/07 12:55:38;;;;;;;1.95;1.27;;;15.60;99.90;;;;;;6166233;29;20274;-67
2022/07/07 12:58:50;;;;;;;2.22;1.25;;;15.70;99.90;;;;;;6166368;29;20274;-67
2022/07/07 13:01:56;;;;;;;0.98;0.98;;;15.70;99.90;;;;;;6166152;29;20274;-67
2022/07/07 13:05:03;;;;;;;2.45;1.27;;;15.70;99.90;;;;;;6166257;29;20271;-67
2022/07/07 13:08:12;;;;;;;1.20;1.10;;;15.70;99.90;;;;;;6165903;28;20274;-67
2022/07/07 13:11:19;;;;;;;1.48;1.38;;;15.70;99.90;;;;;;6181114;28;20301;-67
2022/07/07 13:14:24;;;;;;;2.03;1.70;;;15.70;99.90;;;;;;6188545;28;20274;-67
2022/07/07 13:17:31;;;;;;;1.58;1.58;;;15.70;99.90;;;;;;6189478;28;20278;-67
2022/07/07 13:20:37;;;;;;;1.20;1.20;;;15.70;99.90;;;;;;6189772;28;20274;-67
2022/07/07 13:23:43;;;;;;;2.90;1.10;;;15.70;99.90;;;;;;6189139;28;20277;-67
2022/07/07 13:26:48;;;;;;;1.15;1.13;;;15.70;99.90;;;;;;6189512;28;20278;-67
2022/07/07 13:29:54;;;;;;;2.33;1.30;;;15.70;99.90;;;;;;6189368;28;20279;-67
2022/07/07 13:32:59;;;;;;;1.40;1.30;;;15.70;99.90;;;;;;6188683;28;20293;-67
2022/07/07 13:36:07;;;;;;;2.45;2.10;;;15.60;99.90;;;;;;6189034;28;20413;-67
2022/07/07 13:39:12;;;;;;;2.55;1.58;;;15.60;99.90;;;;;;6189417;28;20270;-67
2022/07/07 13:42:18;;;;;;;1.23;1.23;;;15.70;99.90;;;;;;6188774;28;20278;-67
2022/07/07 13:45:23;;;;;;;3.17;1.45;;;15.70;99.90;;;;;;6189193;28;20274;-67
2022/07/07 13:48:28;;;;;;;1.52;1.38;;;15.80;99.90;;;;;;6189111;28;20305;-67
2022/07/07 13:51:35;;;;;;;1.20;1.20;;;15.70;99.90;;;;;;6188819;28;20298;-67
2022/07/07 13:54:42;;;;;;;1.70;1.20;;;15.70;99.90;;;;;;6188541;28;20274;-67
2022/07/07 13:57:48;;;;;;;1.50;1.40;;;15.80;99.90;;;;;;6188720;28;20274;-67
2022/07/07 14:00:53;;;;;;;1.58;1.40;;;15.90;99.90;;;;;;6188821;28;20281;-67
2022/07/07 14:03:58;;;;;;;3.83;1.30;;;16.00;99.90;;;;;;6185022;28;20318;-68
2022/07/07 14:07:06;;;;;;;1.48;1.20;;;16.00;99.90;;;;;;6164634;28;20274;-67
2022/07/07 14:10:11;;;;;;;0.88;0.88;;;16.00;99.90;;;;;;6164790;29;20307;-67
2022/07/07 14:13:17;;;;;;;3.33;1.20;;;16.00;99.90;;;;;;6164628;29;20290;-66
2022/07/07 14:16:22;;;;;;;1.38;1.10;;;16.00;99.90;;;;;;6164854;28;20594;-67
2022/07/07 14:19:27;;;;;;;0.90;0.90;;;16.00;99.90;;;;;;6164352;29;20562;-67
2022/07/07 14:22:35;;;;;;;1.20;0.70;;;16.00;99.90;;;;;;6163956;29;20282;-67
2022/07/07 14:25:41;;;;;;;0.90;0.90;;;15.90;99.90;;;;;;6163923;28;20431;-67
2022/07/07 14:28:47;;;;;;;2.65;1.20;;;15.90;99.90;;;;;;6164640;28;20278;-67
2022/07/07 14:31:52;;;;;;;2.80;2.60;;;16.00;99.90;;;;;;6164388;29;20315;-67
2022/07/07 14:35:05;;;;;;;2.53;2.42;;;16.00;99.90;;;;;;6164180;29;20274;-67
2022/07/07 14:38:14;;;;;;;2.50;2.40;;;16.10;99.90;;;;;;6164627;28;20274;-67
2022/07/07 14:41:19;;;;;;;2.90;2.70;;;16.30;99.90;;;;;;6164253;29;20460;-67
2022/07/07 14:44:24;;;;;;;2.10;2.00;;;16.20;99.90;;;;;;6164037;28;20278;-68
2022/07/07 14:47:29;;;;;;;2.50;2.38;;;16.30;99.90;;;;;;6164294;29;20274;-67
2022/07/07 14:50:34;;;;;;;1.40;1.40;;;16.40;99.90;;;;;;6164423;28;20530;-67
2022/07/07 14:53:41;;;;;;;1.98;1.90;;;16.50;99.90;;;;;;6164286;29;20294;-67
2022/07/07 14:56:46;;;;;;;1.50;1.50;;;16.50;99.90;;;;;;6164407;28;20565;-67
2022/07/07 14:59:53;;;;;;;1.48;1.48;;;16.60;99.90;;;;;;6163616;29;20274;-67
2022/07/07 15:02:58;;;;;;;1.73;1.45;;;16.70;99.90;;;;;;6164137;29;20468;-67
2022/07/07 15:06:03;;;;;;;1.90;0.93;;;16.70;99.90;;;;;;6163515;29;20274;-67
2022/07/07 15:09:12;;;;;;;8.45;7.75;;;16.50;99.90;;;;;;6164150;29;20277;-67
2022/07/07 15:12:17;;;;;;;1.80;1.70;;;16.50;99.90;;;;;;6187489;28;20297;-67
2022/07/07 15:15:23;;;;;;;1.30;1.20;;;16.40;99.90;;;;;;6187955;28;20273;-67
2022/07/07 15:18:28;;;;;;;1.65;1.08;;;16.50;99.90;;;;;;6187285;28;20273;-67
2022/07/07 15:21:34;;;;;;;1.00;1.00;;;16.60;99.90;;;;;;6187713;28;20553;-67
2022/07/07 15:24:40;;;;;;;1.27;1.15;;;16.80;99.90;;;;;;6187730;28;20574;-67
2022/07/07 15:27:47;;;;;;;1.00;1.00;;;16.90;99.90;;;;;;6187173;28;20274;-67
2022/07/07 15:30:54;;;;;;;1.15;1.10;;;17.20;99.90;;;;;;6187813;28;20278;-67
2022/07/07 15:34:00;;;;;;;1.00;1.00;;;17.30;99.90;;;;;;6187124;28;20484;-67
2022/07/07 15:37:05;;;;;;;2.45;1.20;;;17.40;99.90;;;;;;6188001;28;20275;-66
2022/07/07 15:40:13;;;;;;;1.25;1.13;;;17.30;99.90;;;;;;6191692;28;20278;-67
2022/07/07 15:43:18;;;;;;;1.33;0.80;;;17.20;99.90;;;;;;6191849;28;20282;-67
2022/07/07 15:46:25;;;;;;;1.85;1.00;;;17.30;99.90;;;;;;6191871;28;20273;-67
2022/07/07 15:49:31;;;;;;;1.38;1.27;;;17.30;99.90;;;;;;6191687;28;20278;-67
2022/07/07 15:52:36;;;;;;;1.20;1.10;;;17.40;99.90;;;;;;6191376;28;20286;-68
2022/07/07 15:55:42;;;;;;;1.10;1.10;;;17.50;99.90;;;;;;6191703;28;20273;-68
2022/07/07 15:58:48;;;;;;;3.10;2.90;;;17.50;99.90;;;;;;6191447;28;20293;-68
2022/07/07 16:01:53;;;;;;;1.27;1.27;;;17.50;99.90;;;;;;6191543;28;20310;-68
2022/07/07 16:04:58;;;;;;;1.20;1.20;;;17.40;99.90;;;;;;6180190;28;20456;-67
2022/07/07 16:08:04;;;;;;;2.40;2.30;;;17.30;99.90;;;;;;6167245;29;20274;-67
2022/07/07 16:11:11;;;;;;;2.25;2.10;;;17.30;99.90;;;;;;6167242;28;20298;-67
2022/07/07 16:14:18;;;;;;;1.60;1.50;;;17.30;99.90;;;;;;6167502;29;20290;-68
2022/07/07 16:17:23;;;;;;;3.38;3.28;;;17.10;99.90;;;;;;6166567;29;20340;-68